Date,TemperatureHighF,TemperatureAvgF,TemperatureLowF,DewpointHighF,DewpointAvgF,DewpointLowF,HumidityHigh,HumidityAvg,HumidityLow,PressureMaxIn,PressureMinIn,WindSpeedMaxMPH,WindSpeedAvgMPH,GustSpeedMaxMPH,PrecipitationSumIn
2013-1-1,31.2,18.7,8.7,13.6,7.4,3.3,82,63,34,30.40,30.24,6,0,6,0.00
2013-1-2,33.7,19.5,11.1,10.5,4.9,0.5,67,54,28,30.52,30.35,12,0,12,0.00
2013-1-3,36.6,21.8,11.0,4.8,0.3,-4.4,63,41,19,30.54,30.40,5,0,5,0.00
2013-1-4,49.2,28.3,15.2,11.7,4.3,-4.5,67,38,18,30.41,30.15,5,0,5,0.00
2013-1-5,39.7,26.0,13.9,16.0,11.4,6.2,72,55,31,30.44,30.19,7,0,9,0.00
2013-1-6,55.1,33.5,17.6,17.5,9.1,-0.3,57,38,16,30.41,30.00,5,0,6,0.00
2013-1-7,51.9,39.0,28.7,13.5,10.7,7.1,48,32,18,30.03,29.79,8,0,8,0.00
2013-1-8,53.7,39.6,29.6,20.5,14.1,5.3,62,36,22,30.20,29.77,9,0,9,0.00
2013-1-9,58.4,40.3,26.7,21.7,17.8,13.4,61,42,22,30.31,29.99,19,2,19,0.00
2013-1-10,53.1,44.4,34.4,17.5,12.4,4.7,42,28,14,29.99,29.39,15,3,15,0.00
2013-1-11,44.1,28.0,8.5,26.6,16.4,2.7,91,66,31,29.83,29.16,18,1,18,0.01
2013-1-12,13.9,6.2,-0.6,7.4,-0.2,-6.1,84,75,62,30.36,29.83,9,0,9,0.00
2013-1-13,12.7,4.5,-3.1,2.2,-2.7,-8.8,79,72,60,30.51,30.36,8,1,8,0.00
2013-1-14,12.8,4.7,-0.6,2.6,-1.5,-5.5,82,75,59,30.50,30.37,1,0,7,0.00
2013-1-15,30.1,17.2,-2.0,16.8,2.5,-7.7,77,54,32,30.48,30.36,1,0,5,0.01
2013-1-16,49.7,33.0,21.9,22.1,19.1,13.1,69,58,31,30.39,30.25,4,0,5,0.09
2013-1-17,50.8,35.1,23.0,23.7,18.3,13.8,72,52,25,30.48,30.24,5,0,5,0.00
2013-1-18,57.9,39.5,27.0,17.3,8.9,4.8,58,31,13,30.24,30.04,7,0,7,0.00
2013-1-19,58.7,42.2,23.8,11.7,8.3,4.0,52,28,11,30.23,30.05,5,0,5,0.00
2013-1-20,28.7,26.3,24.2,10.6,10.0,9.3,54,50,45,30.21,30.19,2,0,2,0.00
2013-1-21,55.5,38.1,20.1,16.6,10.1,0.5,74,39,15,30.25,30.07,1,0,10,0.00
2013-1-22,63.9,43.3,28.3,5.5,1.3,-1.3,31,19,8,30.10,29.97,3,0,14,0.00
2013-1-23,60.6,45.4,35.6,14.2,4.5,-4.0,31,19,13,30.10,30.01,1,0,5,0.00
2013-1-24,64.5,48.5,34.8,27.3,15.1,4.5,47,28,12,30.03,29.82,3,0,12,0.00
2013-1-25,56.7,39.9,32.8,27.4,24.0,20.1,66,54,31,30.04,29.92,3,0,10,0.00
2013-1-26,34.6,32.7,31.5,24.9,23.9,23.1,75,70,65,29.98,29.92,3,0,3,0.00
2013-1-27,57.5,48.2,29.8,38.1,29.3,17.2,95,51,29,29.70,29.61,8,0,8,0.01
2013-1-28,58.2,38.6,25.6,30.1,24.8,19.0,93,62,27,29.76,29.36,15,1,15,0.00
2013-1-29,30.7,24.1,18.4,23.1,14.4,5.0,91,68,37,30.16,29.74,14,1,15,0.02
2013-1-30,37.8,25.7,10.3,14.1,10.0,3.9,82,54,31,30.16,30.06,15,1,19,0.00
2013-1-31,48.2,35.4,23.9,20.0,16.3,12.6,65,47,26,30.25,30.11,12,0,12,0.00
2013-2-1,50.7,35.8,25.0,21.6,16.7,13.2,70,48,24,30.31,30.12,21,1,21,0.00
2013-2-2,58.4,37.7,24.7,20.3,15.1,8.4,75,45,14,30.41,30.30,12,1,12,0.00
2013-2-3,46.4,33.6,30.0,16.3,15.6,14.2,53,48,28,30.35,30.07,6,0,6,0.00
2013-2-4,54.3,38.5,25.5,14.9,9.9,5.0,51,33,15,30.04,29.91,1,0,7,0.00
2013-2-5,59.4,43.0,28.2,18.9,15.5,11.6,55,34,18,30.12,29.86,12,2,12,0.00
2013-2-6,57.5,41.4,29.9,34.2,23.2,16.1,95,53,24,30.09,29.78,9,0,9,0.07
2013-2-7,47.7,35.0,23.5,30.9,24.2,11.5,93,68,23,30.25,30.09,11,1,11,0.07
2013-2-8,55.0,39.6,30.1,22.6,19.4,15.7,66,46,24,30.13,29.73,14,1,14,0.00
2013-2-9,36.2,30.1,21.9,29.4,21.1,14.8,88,70,53,29.73,29.59,12,1,12,0.01
2013-2-10,34.7,26.9,19.7,19.2,15.9,8.3,90,66,34,30.02,29.71,13,1,13,0.01
2013-2-15,37.4,25.2,14.0,17.9,13.7,9.0,80,63,35,30.54,30.45,4,1,16,0.00
2013-2-16,55.4,38.8,22.6,15.2,13.0,10.4,65,39,19,30.45,30.05,4,1,16,0.00
2013-2-17,63.1,43.7,30.8,23.2,6.8,0.1,73,26,9,30.04,29.48,5,2,17,0.00
2013-2-18,40.7,30.6,20.1,20.6,10.6,-0.9,82,48,17,30.17,29.70,4,1,14,0.00
2013-2-19,43.0,28.7,14.8,14.4,10.1,3.8,66,47,30,30.16,29.89,2,0,11,0.00
2013-2-20,37.0,26.5,19.1,30.4,19.1,13.4,91,74,52,29.89,29.68,1,0,8,0.00
2013-2-21,25.6,19.8,12.3,17.3,14.1,8.1,88,79,68,30.11,29.82,7,0,8,0.03
2013-2-22,34.4,22.3,10.6,19.1,13.6,6.2,86,70,48,30.18,30.05,7,0,7,0.01
2013-2-23,49.2,31.1,17.0,25.9,14.7,3.9,89,53,27,30.05,29.67,7,1,8,0.00
2013-2-24,28.2,26.4,24.1,25.8,24.4,22.2,93,92,89,30.15,29.75,15,2,15,0.00
2013-2-25,34.0,20.7,5.6,22.2,11.0,1.6,91,66,49,30.27,30.02,6,0,6,0.03
2013-2-26,33.5,24.4,18.9,24.5,18.3,9.3,90,78,57,30.20,29.97,16,2,16,0.00
2013-2-27,36.5,24.5,13.2,18.5,11.2,5.0,85,59,31,30.32,30.20,12,1,12,0.00
2013-2-28,43.7,29.0,11.5,14.7,8.0,0.2,69,43,20,30.36,30.24,13,1,16,0.00
2013-3-1,46.7,34.9,22.8,23.3,17.7,13.0,69,51,31,30.30,30.20,8,0,8,0.00
2013-3-2,60.1,43.1,27.8,27.4,22.6,18.4,71,47,24,30.28,29.92,7,0,7,0.00
2013-3-3,61.3,49.2,37.4,26.4,22.3,17.9,58,36,21,29.92,29.45,8,0,8,0.00
2013-3-4,38.4,27.8,14.1,27.0,20.3,7.9,92,74,57,30.26,29.47,14,1,14,0.01
2013-3-5,43.4,26.9,9.6,23.5,15.0,3.1,82,63,31,30.38,30.18,9,0,9,0.00
2013-3-6,60.5,40.2,20.8,29.0,21.6,11.4,86,54,15,30.18,29.76,10,0,10,0.00
2013-3-7,65.1,48.3,33.3,28.0,21.9,17.2,67,38,16,29.82,29.68,10,1,11,0.00
2013-3-8,47.3,37.0,28.7,33.6,28.9,23.4,92,73,51,29.77,29.57,5,0,5,0.00
2013-3-9,33.1,29.8,25.1,31.3,26.8,15.4,96,89,66,30.08,29.54,17,2,17,0.01
2013-3-10,38.4,28.6,17.5,22.6,18.4,13.5,88,67,41,30.19,30.08,13,0,15,0.04
2013-3-11,51.0,36.6,26.0,32.0,21.1,16.6,92,58,28,30.09,29.85,13,1,15,0.00
2013-3-12,41.9,31.4,23.8,29.7,25.4,19.5,94,79,58,30.26,30.08,9,1,9,0.02
2013-3-13,64.6,47.0,30.7,29.9,25.6,21.0,82,48,21,30.24,30.07,8,0,8,0.00
2013-3-14,41.7,41.5,41.4,28.0,27.9,27.8,58,58,58,30.10,30.10,0,0,1,0.00
2013-3-15,74.5,63.6,46.9,27.6,24.3,21.5,43,23,14,29.94,29.58,11,1,11,0.00
2013-3-16,52.6,46.8,40.9,38.8,32.2,25.4,73,58,37,29.68,29.55,11,0,11,0.00
2013-3-17,61.0,47.1,35.2,33.2,24.8,11.7,74,46,15,29.64,29.34,21,2,21,0.00
2013-4-6,62.7,53.6,43.1,35.9,25.0,20.7,52,34,23,29.76,29.64,3,1,17,0.00
2013-4-7,65.8,52.9,38.4,35.2,29.1,23.5,81,44,22,29.71,29.55,3,1,14,0.00
2013-4-8,69.7,48.9,26.7,42.6,27.0,22.0,90,49,17,29.66,29.22,8,2,23,0.00
2013-4-9,25.5,15.4,9.9,22.5,11.0,5.8,88,83,76,30.45,29.71,5,3,16,0.00
2013-4-10,23.7,16.5,5.2,15.2,9.4,1.2,83,74,62,30.45,30.18,3,1,10,0.01
2013-4-11,53.8,38.1,22.1,36.4,26.0,14.8,87,63,35,30.14,29.88,5,1,14,0.00
2013-4-12,59.9,43.5,32.1,37.5,31.0,20.0,87,65,24,29.94,29.83,20,1,20,0.01
2013-4-13,69.9,49.5,33.7,32.5,26.7,16.9,90,52,16,29.92,29.34,12,1,12,0.00
2013-4-14,52.3,45.1,35.0,41.4,16.3,8.2,95,33,18,29.72,29.35,17,2,18,0.12
2013-4-15,38.8,31.2,23.3,27.5,21.9,10.2,91,72,32,30.09,29.66,17,1,17,0.00
2013-4-16,45.5,32.0,23.0,30.4,26.0,20.8,94,79,53,30.10,29.88,17,2,17,0.01
2013-4-17,30.6,26.4,18.9,28.0,24.0,15.7,94,91,83,30.27,29.96,15,2,15,0.01
2013-4-18,35.2,25.4,14.2,19.8,14.2,8.3,88,64,43,30.35,30.26,10,1,11,0.00
2013-4-19,54.8,40.6,23.0,27.8,18.0,13.1,69,43,24,30.33,29.97,8,0,8,0.00
2013-4-20,59.8,46.0,33.5,35.9,28.2,22.5,71,52,28,29.97,29.82,10,0,10,0.01
2013-4-21,62.7,48.5,34.3,34.6,28.1,21.0,83,50,22,30.02,29.88,9,0,9,0.00
2013-4-22,54.7,36.3,23.3,38.2,28.0,20.3,90,73,45,30.31,29.78,19,2,19,0.00
2013-4-23,32.7,25.1,19.4,20.2,18.2,16.2,91,76,55,30.40,30.26,2,0,7,0.00
2013-4-24,54.4,42.9,24.9,24.2,19.8,12.9,77,43,21,30.36,30.21,9,1,11,0.00
2013-4-25,65.3,50.4,35.9,28.3,22.7,15.0,56,36,16,30.20,29.81,11,1,11,0.00
2013-4-26,65.1,51.3,32.7,28.5,24.9,19.9,77,40,20,30.14,29.91,10,1,10,0.00
2013-4-27,71.0,52.1,39.7,28.3,25.3,17.6,59,39,15,30.13,29.98,8,0,8,0.00
2013-4-28,78.0,63.0,44.3,34.3,26.5,20.9,41,27,15,29.89,29.63,4,0,14,0.00
2013-4-29,79.3,64.8,47.0,36.3,30.7,25.7,60,31,15,29.70,29.36,3,1,10,0.00
2013-4-30,60.1,52.7,39.2,40.6,33.5,21.1,88,51,26,29.87,29.38,6,2,19,0.00
2013-5-1,38.8,31.1,24.2,36.0,28.8,22.0,95,91,83,30.72,29.87,4,2,12,0.00
2013-5-2,44.7,33.4,22.1,23.7,20.4,15.7,91,63,32,30.85,30.53,1,0,8,0.00
2013-5-3,59.4,49.3,31.0,26.1,23.3,18.8,68,38,23,30.52,30.06,9,1,13,0.00
2013-5-4,59.2,47.6,33.4,34.3,27.8,24.7,75,48,31,30.10,30.02,11,1,11,0.00
2013-5-7,68.5,55.5,44.0,46.1,37.8,32.4,79,55,27,29.85,29.71,4,0,19,0.02
2013-5-8,61.1,47.4,43.4,46.0,42.6,38.5,95,84,55,30.01,29.79,5,0,13,0.06
2013-5-9,55.2,48.1,43.2,46.1,42.9,38.9,96,83,58,30.14,30.00,2,0,12,0.20
2013-5-10,64.6,51.9,37.0,42.2,37.6,32.7,89,62,33,30.19,30.11,3,1,13,0.00
2013-5-11,69.3,55.1,41.4,42.9,38.6,32.4,85,57,26,30.29,30.09,2,0,14,0.01
2013-5-12,76.1,62.7,45.0,41.6,36.5,32.8,70,42,22,30.09,29.92,2,0,9,0.00
2013-5-13,84.4,71.1,52.2,42.3,39.2,35.3,54,33,19,29.95,29.76,7,0,9,0.00
2013-5-14,85.7,68.3,54.8,44.7,40.2,35.7,55,38,18,29.76,29.63,21,1,21,0.00
2013-5-15,82.4,64.6,55.6,50.8,44.2,38.9,75,50,22,29.73,29.60,10,0,12,0.00
2013-5-16,64.8,54.3,51.0,48.7,45.5,42.0,79,72,46,29.69,29.64,4,0,4,0.00
2013-5-17,87.4,70.7,54.7,47.2,34.7,24.4,74,34,11,29.62,29.43,2,0,9,0.00
2013-5-18,76.6,65.9,50.4,41.0,34.3,23.2,64,32,19,29.61,29.46,10,0,10,0.00
2013-5-19,71.2,57.5,47.7,40.9,36.0,26.8,73,49,20,29.67,29.52,10,0,10,0.00
2013-5-20,64.1,52.0,46.1,47.6,41.6,33.4,92,70,34,29.90,29.66,13,0,13,0.01
2013-5-21,69.7,55.7,40.7,41.5,35.9,30.4,91,53,26,29.95,29.74,11,1,11,0.00
2013-5-22,77.3,60.6,42.2,48.5,38.2,33.8,81,48,22,29.86,29.67,22,0,22,0.00
2013-5-23,70.7,58.9,49.8,49.7,45.7,43.0,82,63,45,29.87,29.73,15,2,15,0.00
2013-5-24,89.2,69.7,54.1,55.9,42.3,24.9,82,47,12,29.80,29.60,17,1,18,0.00
2013-5-25,87.1,70.7,53.8,55.7,40.0,21.0,90,44,10,29.69,29.53,7,0,7,0.00
2013-5-26,87.1,68.9,53.2,46.7,37.9,26.0,63,37,12,29.64,29.53,13,0,13,0.00
2013-5-27,83.8,69.1,52.8,46.9,35.3,25.6,69,34,13,29.58,29.43,8,0,10,0.00
2013-5-28,81.5,65.6,48.5,48.3,39.4,31.6,73,42,18,29.55,29.28,13,1,13,0.00
2013-5-29,64.0,56.9,50.1,51.1,43.0,28.9,85,62,36,29.54,29.30,9,0,10,0.02
2013-5-30,70.9,58.6,43.4,35.8,30.8,23.1,70,38,18,29.68,29.50,18,1,18,0.01
2013-5-31,72.6,60.9,47.4,34.1,24.4,17.1,54,27,13,29.82,29.66,14,1,14,0.00
2013-6-1,68.9,57.0,42.5,40.3,35.5,22.8,77,47,28,30.04,29.82,12,1,12,0.00
2013-6-2,85.3,65.6,44.7,43.0,36.7,31.9,76,40,16,30.04,29.60,7,0,7,0.00
2013-6-3,92.3,76.0,57.6,40.5,33.6,28.7,35,22,12,29.58,29.38,8,1,14,0.00
2013-6-4,74.5,61.7,49.4,55.5,45.7,28.2,94,59,27,29.98,29.58,12,0,12,0.25
2013-6-5,56.2,50.9,45.4,48.3,46.1,43.3,96,84,72,30.06,29.96,3,0,7,0.02
2013-6-6,78.5,62.9,45.4,48.8,42.7,36.2,93,55,23,30.04,29.85,4,0,9,0.00
2013-6-7,84.7,66.9,50.5,48.3,42.5,37.3,77,44,22,29.90,29.55,9,0,11,0.00
2013-6-8,75.9,66.3,55.7,51.2,43.2,38.6,65,44,30,29.80,29.51,14,1,14,0.00
2013-6-9,89.4,71.0,49.5,48.5,40.1,33.9,73,38,17,29.82,29.65,6,0,6,0.00
2013-6-10,98.1,80.9,64.3,44.4,38.4,31.9,37,23,13,29.66,29.46,13,0,15,0.00
2013-6-11,99.6,81.2,59.8,45.7,35.2,27.8,52,23,9,29.59,29.38,11,0,12,0.00
2013-6-12,91.8,76.1,54.5,44.5,36.2,27.9,56,26,14,29.77,29.59,13,0,13,0.00
2013-6-13,73.9,63.8,57.2,54.3,49.5,34.9,88,64,25,29.75,29.72,5,0,5,0.00
2013-6-14,89.4,72.5,64.6,49.9,44.2,36.1,52,38,16,29.64,29.50,3,0,15,0.00
2013-6-15,81.3,68.5,56.0,53.7,48.0,43.6,74,50,30,29.79,29.61,7,0,7,0.00
2013-6-16,86.3,71.9,57.2,54.6,43.7,34.0,69,39,19,29.91,29.75,12,0,13,0.04
2013-6-17,80.5,67.0,50.8,49.4,43.2,38.3,70,45,25,29.91,29.79,6,0,6,0.00
2013-6-18,87.3,68.6,53.5,54.8,48.2,40.8,90,52,24,29.88,29.61,12,0,12,0.00
2013-6-19,92.7,73.9,55.4,55.5,46.1,34.7,82,47,15,29.70,29.34,16,1,16,0.00
2013-6-20,90.0,74.6,53.3,51.6,39.7,22.0,56,31,14,29.60,29.43,9,1,10,0.00
2013-6-21,97.2,76.6,56.2,57.0,42.2,27.0,76,38,9,29.59,29.41,9,0,11,0.00
2013-6-22,89.6,72.0,55.9,51.2,47.4,40.3,78,45,19,29.60,29.43,10,0,10,0.00
2013-6-23,88.4,67.0,53.2,57.3,48.8,36.4,92,58,19,29.73,29.53,11,0,11,0.25
2013-6-24,88.6,71.3,53.8,53.8,44.2,33.0,78,44,15,29.67,29.48,10,0,10,0.00
2013-6-25,91.6,75.6,57.5,48.2,39.8,31.9,60,30,15,29.70,29.50,7,0,7,0.00
2013-6-26,95.5,78.9,58.2,46.7,42.3,37.8,55,30,15,29.76,29.64,7,0,10,0.00
2013-6-27,95.5,80.4,60.7,52.4,44.6,39.5,64,31,17,29.87,29.71,7,0,8,0.00
2013-6-28,93.8,79.4,61.8,62.4,52.6,44.6,79,41,25,29.93,29.71,12,1,12,0.08
2013-6-29,83.2,72.1,60.2,59.6,54.1,46.2,82,55,31,29.87,29.80,9,0,9,0.00
2013-6-30,77.8,67.8,60.1,61.9,55.9,51.4,91,67,50,29.93,29.84,8,0,8,0.16
2013-7-1,80.2,68.0,55.9,59.1,53.0,44.7,91,62,32,30.02,29.93,6,0,6,0.01
2013-7-2,83.6,69.9,54.5,56.6,49.0,40.6,91,53,25,29.99,29.84,9,0,9,0.00
2013-7-3,88.4,72.1,55.4,51.5,46.5,39.2,76,44,21,29.84,29.59,8,0,9,0.00
2013-7-4,91.3,74.7,57.3,52.5,47.4,40.8,70,42,19,29.70,29.58,11,0,11,0.00
2013-7-5,93.5,74.3,60.1,60.8,51.3,45.1,74,47,24,29.60,29.49,8,0,8,0.01
2013-7-6,91.1,75.6,64.1,57.4,51.3,46.0,65,44,23,29.67,29.53,11,0,11,0.00
2013-7-7,87.6,74.0,61.8,61.3,52.1,47.2,70,48,27,29.75,29.65,12,0,12,0.01
2013-7-8,96.0,79.8,64.9,53.0,49.1,43.2,63,37,17,29.75,29.66,8,0,10,0.00
2013-7-9,94.0,78.2,61.1,51.8,46.2,38.7,61,36,16,29.83,29.73,9,0,9,0.00
2013-7-10,90.5,75.3,59.8,58.3,52.8,46.2,79,48,26,29.84,29.69,12,1,15,0.00
2013-7-11,98.8,75.1,61.9,57.9,54.0,47.2,76,53,18,29.78,29.58,13,1,13,0.00
2013-7-12,93.7,74.6,61.4,62.1,56.7,50.6,88,58,26,29.72,29.56,1,0,9,0.02
2013-7-13,93.5,75.0,62.2,63.6,59.0,52.0,95,64,27,29.83,29.67,14,0,14,0.13
2013-7-14,81.8,69.2,58.2,64.3,60.0,56.2,97,75,43,29.92,29.78,9,0,9,0.07
2013-7-15,76.9,68.1,62.1,64.4,58.3,44.6,96,73,45,29.92,29.83,10,0,12,0.08
2013-7-16,82.0,69.6,57.1,56.3,50.3,46.6,76,53,31,29.96,29.87,11,1,11,0.00
2013-7-17,88.4,74.1,60.2,56.1,52.5,46.0,79,51,26,29.95,29.80,11,1,13,0.00
2013-7-18,93.3,75.9,61.1,56.6,53.2,48.3,76,48,24,29.82,29.70,11,1,11,0.00
2013-7-19,82.8,71.9,61.8,58.4,55.9,52.1,80,59,38,29.85,29.78,9,0,9,0.00
2013-7-20,93.1,74.2,59.8,60.0,54.8,45.0,89,56,21,29.78,29.57,16,0,16,0.00
2013-7-21,90.7,76.7,63.5,59.6,51.9,43.4,72,45,23,29.67,29.57,12,0,12,0.00
2013-7-22,96.7,79.2,60.8,57.4,46.7,37.3,65,35,13,29.65,29.57,8,0,8,0.00
2013-7-23,91.1,77.7,62.4,56.0,46.2,39.2,58,35,19,29.78,29.60,8,0,8,0.00
2013-7-24,81.3,72.6,64.6,64.5,56.8,48.8,79,58,39,29.83,29.73,11,0,11,0.01
2013-7-25,81.1,65.0,57.3,59.6,54.6,48.6,89,71,34,30.02,29.75,8,0,9,0.04
2013-7-26,88.0,71.8,55.9,55.9,49.7,41.0,83,51,22,30.05,29.87,7,0,7,0.00
2013-7-27,81.7,69.5,60.4,61.3,53.8,47.6,94,59,39,29.88,29.69,10,0,10,0.07
2013-7-28,70.9,64.5,60.5,61.0,58.6,55.7,95,82,64,29.78,29.67,5,0,5,0.03
2013-7-29,72.1,64.7,58.4,61.5,57.6,53.2,93,79,59,29.95,29.68,9,0,9,0.00
2013-7-30,87.8,71.2,55.7,56.0,51.2,45.2,86,54,24,30.00,29.89,10,0,11,0.02
2013-7-31,92.2,74.2,58.4,62.5,51.9,44.4,86,51,20,30.02,29.82,5,0,9,0.02
2013-8-1,94.9,74.1,62.2,59.6,52.9,42.6,83,53,17,29.90,29.64,5,0,9,0.00
2013-8-2,94.2,74.1,59.0,59.8,51.3,45.9,75,49,21,29.75,29.63,8,0,14,0.14
2013-8-3,92.0,71.4,57.8,61.9,54.9,50.2,95,60,26,29.96,29.69,13,1,13,0.33
2013-8-4,89.9,71.2,56.0,59.3,53.3,41.8,95,60,21,29.91,29.80,10,0,10,0.01
2013-8-5,88.4,72.9,59.3,56.0,52.0,46.9,78,51,26,29.81,29.71,7,0,9,0.00
2013-8-6,89.0,73.0,59.2,55.6,49.1,40.5,76,47,20,29.77,29.67,12,0,12,0.00
2013-8-7,71.5,66.7,60.4,58.5,53.7,48.4,83,63,48,29.82,29.72,6,0,6,0.00
2013-8-8,76.6,63.3,54.4,58.8,55.6,50.9,97,78,47,29.96,29.76,6,0,7,0.03
2013-8-9,81.7,62.9,52.6,58.1,51.2,45.5,90,69,29,30.00,29.92,6,0,6,0.01
2013-8-10,86.9,67.2,52.0,62.2,50.0,40.2,90,61,21,30.01,29.84,8,0,8,0.04
2013-8-11,81.7,66.8,55.7,57.3,52.1,46.2,88,62,31,29.94,29.88,8,0,9,0.02
2013-8-12,81.1,64.9,53.9,59.2,53.5,48.7,95,69,41,30.02,29.88,8,0,8,0.00
2013-8-13,79.2,65.5,53.2,58.1,53.1,47.4,95,67,35,30.01,29.92,8,0,11,0.00
2013-8-14,81.1,66.5,53.2,55.6,50.1,40.0,96,60,29,29.98,29.86,6,0,6,0.00
2013-8-15,84.7,69.8,55.7,56.3,47.6,37.0,77,49,21,29.91,29.83,8,0,9,0.00
2013-8-16,90.7,73.2,55.7,52.9,46.4,37.3,76,44,17,29.90,29.80,6,0,6,0.00
2013-8-17,92.4,75.9,58.5,55.7,46.0,35.6,66,40,14,29.86,29.68,1,0,8,0.00
2013-8-18,93.8,81.2,59.7,57.0,47.7,41.2,83,34,17,29.79,29.67,8,0,8,0.00
2013-8-19,94.2,77.0,58.1,51.9,47.9,39.8,72,40,16,29.79,29.68,7,0,7,0.00
2013-8-20,96.2,79.4,64.8,51.9,45.3,37.0,54,33,14,29.73,29.59,8,0,8,0.00
2013-8-21,89.2,73.8,61.9,58.2,50.6,43.7,69,47,25,29.81,29.67,11,0,11,0.00
2013-8-22,82.6,69.1,61.1,64.2,58.4,52.7,90,70,40,29.95,29.80,14,0,14,0.00
2013-8-23,87.8,71.3,59.8,59.2,54.8,48.2,89,59,27,29.92,29.67,8,0,8,0.00
2013-8-24,86.5,69.4,55.6,62.0,54.0,48.2,86,62,30,29.85,29.72,7,0,8,0.00
2013-8-25,89.2,73.6,59.5,60.5,55.4,49.4,92,58,28,29.86,29.76,8,0,8,0.00
2013-8-26,90.7,75.2,61.0,59.5,55.2,50.5,81,54,27,29.83,29.74,8,0,8,0.00
2013-8-27,90.5,75.5,61.1,60.4,55.3,48.9,80,53,27,29.82,29.68,9,0,9,0.00
2013-8-28,91.6,75.2,59.0,58.0,51.7,43.8,81,48,22,29.80,29.70,4,0,5,0.00
2013-8-29,93.1,76.0,59.9,55.8,50.2,45.3,70,44,21,29.85,29.77,7,0,8,0.00
2013-8-30,91.3,73.9,65.4,60.8,54.5,49.7,67,52,26,29.84,29.75,9,0,9,0.00
2013-8-31,90.7,74.6,63.0,58.6,53.0,46.7,76,49,25,29.79,29.72,12,0,12,0.00
2013-9-1,79.8,69.2,62.9,60.7,56.5,51.0,77,64,49,29.89,29.79,7,0,7,0.00
2013-9-2,90.5,73.3,57.1,58.3,54.6,46.3,92,57,23,29.88,29.73,7,0,7,0.00
2013-9-3,92.7,77.5,63.7,56.2,52.9,47.2,74,45,24,29.80,29.71,6,0,6,0.00
2013-9-4,92.7,75.6,66.9,60.5,54.9,50.5,75,51,26,29.85,29.77,8,0,8,0.00
2013-9-5,95.7,76.7,63.2,58.1,52.4,45.0,76,47,21,29.90,29.77,8,0,9,0.00
2013-9-6,95.5,77.6,64.1,53.0,47.9,42.4,59,38,18,29.82,29.67,7,0,7,0.00
2013-9-7,93.5,75.2,59.9,54.1,47.2,38.1,71,42,16,29.79,29.67,6,0,6,0.00
2013-9-8,89.9,73.1,58.9,54.5,47.8,41.4,67,43,20,29.72,29.53,9,0,11,0.00
2013-9-9,64.1,60.0,56.8,54.3,52.4,51.2,85,76,67,29.66,29.59,2,0,2,0.00
2013-9-10,70.3,62.9,60.3,60.8,57.0,54.6,93,81,64,29.90,29.77,1,0,8,0.05
2013-9-11,72.7,62.6,59.1,63.3,60.4,57.6,98,93,59,29.98,29.92,0,0,6,0.00
2013-9-12,62.6,59.5,57.6,62.2,58.8,56.7,99,98,96,30.05,29.96,2,0,9,0.00
2013-9-13,73.8,63.8,57.9,63.2,58.5,54.9,99,84,60,29.99,29.68,10,0,10,0.00
2013-9-14,75.2,61.7,58.2,59.3,56.8,54.2,97,85,52,29.71,29.67,5,0,6,0.00
2013-9-20,73.0,60.4,48.7,51.8,46.2,41.3,89,63,32,30.02,29.85,0,0,6,0.00
2013-9-21,82.4,66.8,52.1,49.6,44.9,37.3,81,51,21,29.86,29.57,0,0,6,0.00
2013-9-22,79.1,63.5,55.3,55.3,47.1,42.2,88,58,33,29.56,29.33,1,0,18,0.10
2013-9-23,65.9,56.4,48.7,52.7,41.4,32.9,98,63,31,29.92,29.29,2,1,15,0.70
2013-9-24,75.8,59.2,43.3,40.1,35.8,31.0,68,44,24,30.02,29.70,1,0,8,0.00
2013-9-25,81.6,67.0,48.9,40.6,35.8,32.0,62,35,18,29.67,29.25,4,1,16,0.00
2013-9-26,69.1,57.5,43.8,50.5,44.3,32.0,90,64,32,29.55,29.30,1,0,8,0.00
2013-9-27,51.0,46.6,39.2,50.2,45.1,38.2,98,95,86,29.96,29.54,6,0,6,0.18
2013-9-28,66.6,50.0,33.5,38.7,32.6,24.2,98,58,22,30.13,29.96,6,0,6,0.01
2013-9-29,75.2,57.9,42.1,42.0,33.7,26.5,65,43,19,30.06,29.75,5,0,5,0.00
2013-9-30,82.4,66.0,51.6,44.3,38.6,33.0,57,39,22,29.77,29.56,5,0,5,0.00
2013-10-1,75.3,60.2,45.4,45.8,40.1,35.9,76,51,26,29.86,29.67,1,0,10,0.00
2013-10-2,75.5,60.2,44.6,47.2,41.1,35.5,83,54,26,29.79,29.67,1,0,7,0.00
2013-10-3,64.7,51.6,40.2,49.1,45.7,37.5,95,82,48,29.71,29.55,8,1,8,0.00
2013-10-4,48.5,37.0,29.1,47.2,32.9,22.9,97,86,56,30.22,29.61,10,1,10,0.19
2013-10-5,57.6,40.9,26.4,29.0,23.4,15.4,87,57,21,30.32,30.19,8,0,10,0.00
2013-10-6,66.9,49.4,32.4,38.6,28.1,19.1,69,47,23,30.27,30.15,6,0,6,0.00
2013-10-7,77.8,59.2,43.1,38.7,29.7,22.7,62,36,14,30.15,29.74,6,0,6,0.00
2013-10-8,78.3,62.8,48.9,40.5,33.5,25.8,66,36,15,29.74,29.46,7,0,8,0.00
2013-10-9,52.8,45.1,42.2,38.1,36.3,34.5,77,71,54,29.73,29.59,1,0,1,0.00
2013-10-17,40.4,38.6,37.1,31.4,30.2,29.4,74,71,69,30.10,30.05,6,0,6,0.00
2013-10-18,41.5,35.3,30.1,34.3,28.9,26.4,96,79,57,30.46,30.09,9,0,9,0.15
2013-10-19,63.5,46.5,30.6,27.5,23.7,20.4,78,45,20,30.44,30.11,8,0,8,0.00
2013-10-20,47.4,40.3,32.8,36.6,31.6,24.5,96,73,49,30.37,30.06,4,0,11,0.08
2013-10-21,55.9,41.3,28.2,35.8,28.8,22.9,96,67,29,30.50,30.37,10,0,11,0.00
2013-10-22,63.2,48.0,34.6,35.2,30.0,26.2,73,52,28,30.45,30.31,5,0,5,0.00
2013-10-23,63.7,49.6,38.1,35.9,31.5,27.4,73,52,30,30.36,30.28,8,0,8,0.00
2013-10-24,55.3,43.0,31.5,40.4,35.1,29.5,93,75,55,30.47,30.35,5,0,5,0.00
2013-10-25,67.7,48.3,33.3,40.0,33.3,30.0,91,62,26,30.45,30.28,6,0,6,0.00
2013-10-26,61.0,47.5,34.1,39.1,33.6,31.0,90,61,33,30.53,30.32,5,0,5,0.00
2013-10-27,69.4,52.2,37.6,33.0,27.6,23.4,67,42,19,30.32,29.97,5,0,5,0.00
2013-10-28,44.1,35.7,32.2,34.7,30.8,24.9,96,84,51,30.31,29.99,7,0,8,0.00
2013-10-29,44.5,36.3,32.5,34.7,32.4,31.3,96,86,64,30.30,30.13,6,0,6,0.01
2013-10-30,55.4,39.6,31.6,38.4,33.0,23.6,98,81,31,30.14,30.02,11,0,11,0.06
2013-10-31,53.9,40.3,27.2,30.2,23.7,18.2,95,57,26,30.16,30.07,15,1,15,0.00
2013-11-1,48.8,41.3,32.4,31.9,26.2,20.5,78,56,34,30.45,30.15,9,0,9,0.00
2013-11-2,69.2,47.3,27.9,27.8,21.5,11.1,77,42,15,30.47,29.94,8,0,8,0.00
2013-11-3,68.0,54.6,35.0,28.4,19.4,9.9,76,28,13,29.94,29.60,14,1,14,0.00
2013-11-4,45.8,35.6,27.9,29.4,22.3,13.4,89,60,33,30.21,29.92,11,1,11,0.00
2013-11-5,40.9,32.5,23.0,25.0,15.5,5.8,79,51,29,30.49,30.17,10,1,10,0.00
2013-11-6,52.3,37.1,22.0,18.3,12.1,0.6,51,36,22,30.65,30.47,18,1,18,0.00
2013-11-7,60.8,45.2,31.5,24.4,18.9,13.9,50,36,22,30.66,30.21,5,0,6,0.00
2013-11-8,65.9,52.2,39.2,25.4,20.3,14.4,45,29,17,30.21,29.94,8,0,8,0.00
2013-11-9,66.2,48.7,35.6,32.1,24.9,17.5,76,42,21,30.41,30.14,6,0,7,0.00
2013-11-10,67.2,48.3,34.6,28.8,24.3,19.2,77,45,17,30.43,30.33,5,0,5,0.00
2013-11-11,66.9,41.2,29.1,33.3,24.9,19.0,93,59,16,30.88,30.38,11,0,13,0.00
2013-11-12,60.7,44.0,29.4,31.2,27.4,24.0,93,57,25,30.89,30.59,7,1,8,0.00
2013-11-13,68.6,44.5,34.4,25.0,17.7,11.8,57,37,11,30.59,30.17,6,0,6,0.00
2013-11-14,56.8,47.5,40.7,34.5,28.1,15.8,67,48,29,30.21,29.91,12,1,12,0.00
2013-11-15,50.2,40.5,37.9,29.8,21.6,12.6,62,48,27,29.91,29.84,6,0,8,0.00
2013-11-16,58.7,45.1,33.0,32.9,23.0,15.4,79,46,19,29.61,29.34,3,1,14,0.00
2013-11-17,54.2,42.5,33.0,28.4,19.8,15.5,68,42,22,30.20,29.62,4,1,17,0.00
2013-11-18,64.0,45.0,30.6,19.7,14.3,11.5,51,31,13,30.28,30.12,2,0,8,0.00
2013-11-19,58.5,46.7,33.2,24.9,17.5,11.1,45,32,17,30.11,29.79,1,0,6,0.00
2013-11-20,57.6,44.7,28.1,26.1,24.2,21.7,87,46,25,30.06,29.80,14,1,16,0.00
2013-11-21,27.8,16.1,12.5,24.8,11.7,6.5,90,82,75,30.97,30.06,8,1,11,0.00
2013-11-22,34.4,26.2,15.0,21.1,16.0,8.8,78,66,40,30.98,30.84,6,0,6,0.01
2013-11-23,36.9,29.3,25.1,20.5,15.2,6.0,73,56,44,30.90,30.56,8,1,8,0.00
2013-11-24,36.2,29.4,23.1,26.6,21.6,15.5,86,73,55,30.56,30.23,10,0,10,0.00
2013-11-25,37.1,33.0,26.6,29.0,23.5,17.1,89,69,45,30.53,30.27,12,1,13,0.00
2013-11-26,46.6,34.5,24.4,25.5,20.6,17.4,85,60,32,30.66,30.46,7,0,7,0.00
2013-11-27,63.8,43.3,30.7,22.4,19.1,14.4,67,41,17,30.46,30.17,7,0,7,0.00
2013-11-28,52.0,36.0,26.9,27.3,23.3,18.9,76,61,34,30.34,30.25,5,0,5,0.00
2013-11-29,61.8,41.8,28.2,24.8,20.9,17.6,75,48,20,30.33,30.24,5,0,7,0.00
2013-11-30,59.0,41.2,28.2,19.9,15.4,12.1,60,39,17,30.32,30.23,5,0,5,0.00
2013-12-1,56.0,42.2,29.0,25.0,17.4,12.6,54,38,23,30.30,30.00,9,0,11,0.00
2013-12-2,61.1,48.9,39.2,24.7,21.7,18.6,49,35,22,30.00,29.60,14,1,14,0.00
2013-12-3,59.3,33.5,11.1,29.6,17.8,6.4,86,57,24,29.90,29.49,17,1,17,0.00
2013-12-4,11.1,5.5,-3.5,7.0,0.2,-9.7,83,78,73,30.57,29.90,9,1,9,0.00
2013-12-5,9.2,-0.8,-8.0,-0.2,-7.2,-14.4,80,73,63,30.73,30.54,5,0,5,0.01
2013-12-6,9.4,0.1,-7.3,-1.5,-6.9,-13.6,79,72,57,30.82,30.71,5,0,5,0.00
2013-12-7,10.5,2.2,-7.1,1.9,-3.9,-12.9,80,75,67,30.79,30.33,5,0,5,0.00
2013-12-8,21.1,8.8,0.9,9.0,1.9,-4.3,81,73,59,30.48,30.22,6,0,6,0.00
2013-12-9,25.4,13.5,1.5,3.2,-1.3,-6.3,81,55,26,30.59,30.46,11,0,11,0.00
2013-12-10,47.4,28.6,9.2,17.7,8.5,-5.7,66,44,25,30.58,30.24,10,0,10,0.00
2013-12-11,42.4,24.6,12.9,20.4,13.4,7.1,82,63,37,30.63,30.50,10,1,10,0.00
2013-12-12,50.0,27.5,20.3,11.7,7.0,4.4,57,43,20,30.62,30.50,6,0,6,0.00
2013-12-13,50.7,32.3,20.8,19.9,14.5,8.8,67,50,23,30.37,30.02,4,0,10,0.00
2013-12-14,42.7,31.5,21.1,20.2,16.1,13.2,83,56,30,30.51,30.38,1,0,6,0.00
2013-12-15,57.1,41.6,24.4,21.9,17.0,12.7,68,39,22,30.42,30.28,10,0,10,0.00
2013-12-16,62.4,47.1,33.5,21.5,15.8,9.7,51,30,15,30.32,30.18,12,0,12,0.00
2013-12-17,61.9,44.1,29.4,19.2,16.1,13.1,54,34,17,30.44,30.18,5,0,6,0.00
2013-12-18,66.6,50.5,41.8,19.8,16.0,13.4,38,26,13,30.18,29.73,7,0,7,0.00
2013-12-19,49.2,35.3,15.7,24.6,19.7,12.6,90,56,31,30.01,29.57,13,1,13,0.00
2013-12-20,26.3,21.0,15.5,21.0,17.9,12.8,91,87,79,30.03,29.94,5,0,5,0.00
2013-12-21,31.8,22.7,15.0,22.4,18.1,12.0,91,83,65,30.20,29.86,6,0,6,0.00
2013-12-22,40.7,27.8,16.8,19.7,14.5,9.1,92,63,29,30.48,30.21,12,1,12,0.01
2013-12-23,46.6,29.2,14.6,21.3,16.9,11.2,88,64,30,30.56,30.38,9,0,9,0.00
2013-12-24,55.9,37.2,22.7,27.0,20.6,13.8,73,53,25,30.45,30.13,15,1,15,0.00
2013-12-25,44.4,30.1,15.8,13.8,8.2,4.3,67,42,20,30.67,30.43,8,0,9,0.00
2013-12-26,52.3,35.9,24.5,14.8,10.9,5.5,50,36,19,30.52,30.24,6,0,8,0.00
2013-12-27,59.1,38.2,31.0,21.1,15.9,12.0,50,41,21,30.25,29.97,5,0,6,0.00
2013-12-28,59.5,37.5,20.1,26.5,20.0,14.9,91,53,23,30.17,29.74,15,1,15,0.00
2013-12-29,33.7,23.1,11.7,19.3,13.2,7.8,88,68,37,30.27,30.04,7,0,7,0.12
2013-12-30,47.1,37.6,25.3,17.0,14.1,10.0,58,39,24,30.26,30.07,12,1,12,0.00
2013-12-31,56.5,41.2,31.2,22.0,18.2,11.3,56,41,25,30.07,29.84,5,0,7,0.00
2014-1-1,36.9,32.6,25.9,30.2,25.4,20.1,94,76,52,30.28,29.80,12,1,13,0.01
2014-1-2,50.5,38.0,19.1,20.7,17.6,10.8,85,46,23,30.38,30.04,5,0,7,0.00